Terminal Aerodrome Forecast
Issued by NWS

Home | Current Version | Previous Version | Text Only | Print | Product List | Glossary On
Versions: 1 2 3 4 5 6 7 8 9 10 11 12 13 14 15 16 17
787
FTUS46 KSEW 182353
TAFHQM
TAF
KHQM 182353Z 1900/1924 14008KT P6SM BKN150 OVC200
     FM190800 12013G20KT P6SM VCSH SCT008 BKN025 OVC040
     FM191200 16020G30KT 6SM -RA BR SCT008 BKN015 OVC025
     FM192100 16027G40KT 2SM RA BR SCT004 OVC007 WS020/21055KT=

USA.gov is the U.S. government's official web portal to all federal, state and local government web resources and services.